createdAt,value
2022-12-31T00:01:17.322Z,3.27
2022-12-31T00:03:44.885Z,2.87
2022-12-31T00:06:19.893Z,2.80
2022-12-31T00:08:47.349Z,2.80
2022-12-31T00:11:14.978Z,3.30
2022-12-31T00:13:43.035Z,3.10
2022-12-31T00:16:14.523Z,3.23
2022-12-31T00:18:44.448Z,3.27
2022-12-31T00:21:11.747Z,3.77
2022-12-31T00:23:38.657Z,3.10
2022-12-31T00:26:11.487Z,3.37
2022-12-31T00:28:38.768Z,3.67
2022-12-31T00:31:14.457Z,3.87
2022-12-31T00:33:41.645Z,4.10
2022-12-31T00:36:13.188Z,4.13
2022-12-31T00:38:41.761Z,3.47
2022-12-31T00:41:08.810Z,3.77
2022-12-31T00:43:36.058Z,3.10
2022-12-31T00:46:04.107Z,2.87
2022-12-31T00:48:31.324Z,3.00
2022-12-31T00:50:58.371Z,2.70
2022-12-31T00:53:26.130Z,2.90
2022-12-31T00:55:53.039Z,2.70
2022-12-31T00:58:19.726Z,3.00
2022-12-31T01:00:46.412Z,2.47
2022-12-31T01:03:13.099Z,2.30
2022-12-31T01:05:39.837Z,3.67
2022-12-31T01:08:07.219Z,2.30
2022-12-31T01:10:52.937Z,2.43
2022-12-31T01:13:19.599Z,1.60
2022-12-31T01:15:46.356Z,2.10
2022-12-31T01:18:13.855Z,2.13
2022-12-31T01:20:43.295Z,2.60
2022-12-31T01:23:11.262Z,2.37
2022-12-31T01:25:40.133Z,2.70
2022-12-31T01:28:07.203Z,2.67
2022-12-31T01:30:34.280Z,4.13
2022-12-31T01:33:00.998Z,3.63
2022-12-31T01:35:27.670Z,5.27
2022-12-31T01:37:54.401Z,4.67
2022-12-31T01:40:21.039Z,4.27
2022-12-31T01:42:55.539Z,3.93
2022-12-31T01:45:22.387Z,3.77
2022-12-31T01:47:53.287Z,3.97
2022-12-31T01:50:25.987Z,4.00
2022-12-31T01:52:57.510Z,3.40
2022-12-31T01:55:28.084Z,4.40
2022-12-31T01:57:59.120Z,4.07
2022-12-31T02:00:25.914Z,3.47
2022-12-31T02:02:53.099Z,2.97
2022-12-31T02:05:41.326Z,2.27
2022-12-31T02:08:09.961Z,1.90
2022-12-31T02:10:36.611Z,1.50
2022-12-31T02:13:03.768Z,1.33
2022-12-31T02:16:07.219Z,1.50
2022-12-31T02:18:51.747Z,1.10
2022-12-31T02:21:36.474Z,1.27
2022-12-31T02:24:09.181Z,1.30
2022-12-31T02:26:59.561Z,1.20
2022-12-31T02:29:47.122Z,1.13
2022-12-31T02:32:17.602Z,1.30
2022-12-31T02:34:54.159Z,1.20
2022-12-31T02:37:24.097Z,1.07
2022-12-31T02:39:51.915Z,0.90
2022-12-31T02:42:18.689Z,1.00
2022-12-31T02:44:45.410Z,1.30
2022-12-31T02:47:17.615Z,1.03
2022-12-31T02:50:18.259Z,1.10
2022-12-31T02:53:30.310Z,0.93
2022-12-31T02:56:07.087Z,1.23
2022-12-31T02:59:23.479Z,1.20
2022-12-31T03:02:16.832Z,1.20
2022-12-31T03:04:48.742Z,1.30
2022-12-31T03:07:21.513Z,1.27
2022-12-31T03:09:48.858Z,1.10
2022-12-31T03:12:34.974Z,1.10
2022-12-31T03:15:01.832Z,1.00
2022-12-31T03:17:28.586Z,1.13
2022-12-31T03:20:14.032Z,1.10
2022-12-31T03:22:42.822Z,1.17
2022-12-31T03:25:34.305Z,1.40
2022-12-31T03:28:04.083Z,1.20
2022-12-31T03:30:32.159Z,1.20
2022-12-31T03:32:59.289Z,1.30
2022-12-31T03:35:27.784Z,1.40
2022-12-31T03:37:54.862Z,1.50
2022-12-31T03:40:24.054Z,1.23
2022-12-31T03:42:50.905Z,1.10
2022-12-31T03:45:17.934Z,1.07
2022-12-31T03:47:45.028Z,1.00
2022-12-31T03:50:13.527Z,1.20
2022-12-31T03:52:40.538Z,1.20
2022-12-31T03:55:08.515Z,1.10
2022-12-31T03:57:35.280Z,1.13
2022-12-31T04:00:02.499Z,1.10
2022-12-31T04:02:29.775Z,1.10
2022-12-31T04:04:56.580Z,1.20
2022-12-31T04:07:23.677Z,0.90
2022-12-31T04:09:50.445Z,1.10
2022-12-31T04:12:17.141Z,0.93
2022-12-31T04:14:43.869Z,1.10
2022-12-31T04:17:10.581Z,1.00
2022-12-31T04:19:37.741Z,0.90
2022-12-31T04:22:05.200Z,1.10
2022-12-31T04:24:32.113Z,0.97
2022-12-31T04:27:05.324Z,0.90
2022-12-31T04:29:34.185Z,1.30
2022-12-31T04:32:01.117Z,1.20
2022-12-31T04:34:27.895Z,0.93
2022-12-31T04:36:54.657Z,0.90
2022-12-31T04:39:21.351Z,0.97
2022-12-31T04:41:48.092Z,1.10
2022-12-31T04:44:15.221Z,1.00
2022-12-31T04:46:42.115Z,0.90
2022-12-31T04:49:08.901Z,0.90
2022-12-31T04:51:36.220Z,0.90
2022-12-31T04:54:03.341Z,0.97
2022-12-31T04:56:30.661Z,0.87
2022-12-31T04:58:57.618Z,0.80
2022-12-31T05:01:24.865Z,1.03
2022-12-31T05:03:51.568Z,1.17
2022-12-31T05:06:21.423Z,1.00
2022-12-31T05:08:49.388Z,0.87
2022-12-31T05:11:16.897Z,0.90
2022-12-31T05:13:43.565Z,0.90
2022-12-31T05:16:10.719Z,0.77
2022-12-31T05:18:37.753Z,0.80
2022-12-31T05:21:04.939Z,1.03
2022-12-31T05:23:31.838Z,1.17
2022-12-31T05:25:59.655Z,1.00
2022-12-31T05:28:26.745Z,0.90
2022-12-31T05:30:54.154Z,0.73
2022-12-31T05:33:21.949Z,0.80
2022-12-31T05:35:48.856Z,0.93
2022-12-31T05:38:15.613Z,0.97
2022-12-31T05:40:42.294Z,1.00
2022-12-31T05:43:09.302Z,1.00
2022-12-31T05:45:36.043Z,1.00
2022-12-31T05:48:02.946Z,1.00
2022-12-31T05:50:29.714Z,0.97
2022-12-31T05:52:56.476Z,1.00
2022-12-31T05:55:23.844Z,0.80
2022-12-31T05:57:50.577Z,0.90
2022-12-31T06:00:17.503Z,0.80
2022-12-31T06:02:44.242Z,0.90
2022-12-31T06:05:11.014Z,0.90
2022-12-31T06:07:37.936Z,0.87
2022-12-31T06:10:05.712Z,1.00
2022-12-31T06:12:32.475Z,0.90
2022-12-31T06:14:59.138Z,0.87
2022-12-31T06:17:25.796Z,0.87
2022-12-31T06:19:52.718Z,0.90
2022-12-31T06:22:19.391Z,0.80
2022-12-31T06:24:46.050Z,0.90
2022-12-31T06:27:13.247Z,0.93
2022-12-31T06:29:40.047Z,0.90
2022-12-31T06:32:06.857Z,0.90
2022-12-31T06:34:33.534Z,0.80
2022-12-31T06:37:00.282Z,1.10
2022-12-31T06:39:27.071Z,0.93
2022-12-31T06:41:54.379Z,0.87
2022-12-31T06:44:22.496Z,1.00
2022-12-31T06:46:50.323Z,1.00
2022-12-31T06:49:17.452Z,0.90
2022-12-31T06:51:46.153Z,1.00
2022-12-31T06:54:13.649Z,0.90
2022-12-31T06:56:40.924Z,1.00
2022-12-31T06:59:22.651Z,1.00
2022-12-31T07:02:01.527Z,0.90
2022-12-31T07:04:46.697Z,0.90
2022-12-31T07:07:28.378Z,1.00
2022-12-31T07:10:25.600Z,1.00
2022-12-31T07:13:20.164Z,1.20
2022-12-31T07:16:05.426Z,1.10
2022-12-31T07:18:51.838Z,1.43
2022-12-31T07:21:25.436Z,1.00
2022-12-31T07:23:52.424Z,1.00
2022-12-31T07:26:30.035Z,2.13
2022-12-31T07:28:59.490Z,1.20
2022-12-31T07:32:03.927Z,1.20
2022-12-31T07:35:08.299Z,1.20
2022-12-31T07:38:09.836Z,1.40
2022-12-31T07:40:55.310Z,1.10
2022-12-31T07:43:40.275Z,1.40
2022-12-31T07:46:33.559Z,1.20
2022-12-31T07:49:00.593Z,1.30
2022-12-31T07:51:27.892Z,1.40
2022-12-31T07:53:54.768Z,1.40
2022-12-31T07:56:21.514Z,1.30
2022-12-31T07:59:08.042Z,1.30
2022-12-31T08:01:48.363Z,1.40
2022-12-31T08:04:33.753Z,1.33
2022-12-31T08:07:32.423Z,1.30
2022-12-31T08:10:27.254Z,1.43
2022-12-31T08:13:01.643Z,1.33
2022-12-31T08:15:30.666Z,1.20
2022-12-31T08:17:58.072Z,1.33
2022-12-31T08:20:25.972Z,1.20
2022-12-31T08:23:09.545Z,1.20
2022-12-31T08:25:49.689Z,1.20
2022-12-31T08:28:41.094Z,1.30
2022-12-31T08:31:19.408Z,1.30
2022-12-31T08:34:11.013Z,1.17
2022-12-31T08:36:57.752Z,1.20
2022-12-31T08:39:33.902Z,1.27
2022-12-31T08:42:05.963Z,1.30
2022-12-31T08:44:55.146Z,1.10
2022-12-31T08:47:49.653Z,1.23
2022-12-31T08:50:18.427Z,1.13
2022-12-31T08:52:46.247Z,1.30
2022-12-31T08:55:15.402Z,1.60
2022-12-31T08:57:44.859Z,1.40
2022-12-31T09:00:17.203Z,1.30
2022-12-31T09:03:16.099Z,1.40
2022-12-31T09:06:10.593Z,1.20
2022-12-31T09:08:51.130Z,1.30
2022-12-31T09:11:31.029Z,1.30
2022-12-31T09:14:07.000Z,1.40
2022-12-31T09:16:59.882Z,1.10
2022-12-31T09:19:27.036Z,1.27
2022-12-31T09:21:54.197Z,1.37
2022-12-31T09:24:21.130Z,1.47
2022-12-31T09:27:12.946Z,1.17
2022-12-31T09:29:48.217Z,1.00
2022-12-31T09:32:51.938Z,0.93
2022-12-31T09:35:53.963Z,1.10
2022-12-31T09:38:36.277Z,1.00
2022-12-31T09:41:16.154Z,0.90
2022-12-31T09:44:12.814Z,1.10
2022-12-31T09:47:07.511Z,0.97
2022-12-31T09:49:40.061Z,1.00
2022-12-31T09:52:45.931Z,1.30
2022-12-31T09:55:27.353Z,0.93
2022-12-31T09:58:31.597Z,1.10
2022-12-31T10:01:11.788Z,1.20
2022-12-31T10:03:57.010Z,1.10
2022-12-31T10:06:47.844Z,1.20
2022-12-31T10:09:44.854Z,1.13
2022-12-31T10:12:37.855Z,1.03
2022-12-31T10:15:30.462Z,1.10
2022-12-31T10:18:15.762Z,1.13
2022-12-31T10:21:00.828Z,1.00
2022-12-31T10:23:55.234Z,1.10
2022-12-31T10:26:35.589Z,1.20
2022-12-31T10:29:42.593Z,0.97
2022-12-31T10:32:15.531Z,0.87
2022-12-31T10:34:53.812Z,1.17
2022-12-31T10:37:44.669Z,1.20
2022-12-31T10:40:18.921Z,1.07
2022-12-31T10:42:48.550Z,1.00
2022-12-31T10:45:26.975Z,1.20
2022-12-31T10:48:15.702Z,1.10
2022-12-31T10:51:00.838Z,1.00
2022-12-31T10:53:55.228Z,1.10
2022-12-31T10:56:48.974Z,1.10
2022-12-31T10:59:44.332Z,1.00
2022-12-31T11:02:26.217Z,1.20
2022-12-31T11:05:11.967Z,1.13
2022-12-31T11:08:08.915Z,1.00
2022-12-31T11:10:53.503Z,1.37
2022-12-31T11:13:38.601Z,1.17
2022-12-31T11:16:08.557Z,1.10
2022-12-31T11:18:56.460Z,1.20
2022-12-31T11:22:01.751Z,1.30
2022-12-31T11:25:06.966Z,1.00
2022-12-31T11:27:50.471Z,1.10
2022-12-31T11:30:45.726Z,1.10
2022-12-31T11:33:48.438Z,1.20
2022-12-31T11:36:36.383Z,1.27
2022-12-31T11:39:31.478Z,1.10
2022-12-31T11:42:19.597Z,0.90
2022-12-31T11:44:55.315Z,0.90
2022-12-31T11:47:24.793Z,1.10
2022-12-31T11:50:38.752Z,1.10
2022-12-31T11:53:23.976Z,0.97
2022-12-31T11:56:13.579Z,1.10
2022-12-31T11:58:51.117Z,1.20
2022-12-31T12:01:22.830Z,1.00
2022-12-31T12:03:49.645Z,1.17
2022-12-31T12:06:23.421Z,1.10
2022-12-31T12:08:50.660Z,1.17
2022-12-31T12:11:23.480Z,1.40
2022-12-31T12:13:50.285Z,1.33
2022-12-31T12:16:19.622Z,1.20
2022-12-31T12:18:49.659Z,1.60
2022-12-31T12:21:25.137Z,1.40
2022-12-31T12:23:56.190Z,1.23
2022-12-31T12:26:37.932Z,1.10
2022-12-31T12:29:16.255Z,1.10
2022-12-31T12:31:53.929Z,1.10
2022-12-31T12:34:26.506Z,0.97
2022-12-31T12:36:53.372Z,1.20
2022-12-31T12:39:27.055Z,1.13
2022-12-31T12:42:10.631Z,1.30
2022-12-31T12:44:37.577Z,1.30
2022-12-31T12:47:07.287Z,1.33
2022-12-31T12:49:45.981Z,1.10
2022-12-31T12:52:27.500Z,1.10
2022-12-31T12:55:28.039Z,1.27
2022-12-31T12:58:24.711Z,1.10
2022-12-31T13:01:10.900Z,1.30
2022-12-31T13:04:33.508Z,1.10
2022-12-31T13:06:57.848Z,1.20
2022-12-31T13:09:51.604Z,1.30
2022-12-31T13:13:05.171Z,1.30
2022-12-31T13:15:37.031Z,1.20
2022-12-31T13:18:28.251Z,1.20
2022-12-31T13:21:01.780Z,1.33
2022-12-31T13:23:45.520Z,1.13
2022-12-31T13:26:27.931Z,1.30
2022-12-31T13:28:55.921Z,1.20
2022-12-31T13:31:36.255Z,1.30
2022-12-31T13:34:29.085Z,1.43
2022-12-31T13:36:58.651Z,1.30
2022-12-31T13:39:29.255Z,1.50
2022-12-31T13:42:02.525Z,2.10
2022-12-31T13:44:36.536Z,1.70
2022-12-31T13:47:20.408Z,1.30
2022-12-31T13:49:54.952Z,1.50
2022-12-31T13:52:47.918Z,1.50
2022-12-31T13:55:40.812Z,1.67
2022-12-31T13:58:37.171Z,1.87
2022-12-31T14:01:21.868Z,1.80
2022-12-31T14:04:11.981Z,1.60
2022-12-31T14:06:49.419Z,2.83
2022-12-31T14:09:34.408Z,2.00
2022-12-31T14:12:51.426Z,2.10
2022-12-31T14:15:18.060Z,2.43
2022-12-31T14:17:57.996Z,2.00
2022-12-31T14:21:00.359Z,2.70
2022-12-31T14:23:35.946Z,2.60
2022-12-31T14:26:19.956Z,2.57
2022-12-31T14:28:56.675Z,3.23
2022-12-31T14:31:27.980Z,2.80
2022-12-31T14:34:02.531Z,3.07
2022-12-31T14:36:50.081Z,2.53
2022-12-31T14:39:34.976Z,2.50
2022-12-31T14:42:18.456Z,2.43
2022-12-31T14:45:18.324Z,2.83
2022-12-31T14:47:52.560Z,2.67
2022-12-31T14:50:30.591Z,3.17
2022-12-31T14:52:59.980Z,3.00
2022-12-31T14:55:30.059Z,2.90
2022-12-31T14:58:27.297Z,3.10
2022-12-31T15:01:26.516Z,2.90
2022-12-31T15:03:58.103Z,3.03
2022-12-31T15:06:31.328Z,3.33
2022-12-31T15:09:35.495Z,3.50
2022-12-31T15:12:24.093Z,3.97
2022-12-31T15:15:20.062Z,4.30
2022-12-31T15:18:03.337Z,4.57
2022-12-31T15:20:52.891Z,4.33
2022-12-31T15:23:25.939Z,5.17
2022-12-31T15:26:03.144Z,4.87
2022-12-31T15:28:36.364Z,4.90
2022-12-31T15:31:20.432Z,4.90
2022-12-31T15:34:00.269Z,4.60
2022-12-31T15:36:31.937Z,4.53
2022-12-31T15:39:10.787Z,5.30
2022-12-31T15:42:18.552Z,5.43
2022-12-31T15:44:50.596Z,5.20
2022-12-31T15:47:33.244Z,5.37
2022-12-31T15:50:06.012Z,6.87
2022-12-31T15:52:38.455Z,7.27
2022-12-31T15:55:07.418Z,7.47
2022-12-31T15:57:39.821Z,6.80
2022-12-31T16:00:20.604Z,6.80
2022-12-31T16:02:48.368Z,6.40
2022-12-31T16:05:26.514Z,6.27
2022-12-31T16:07:58.226Z,6.30
2022-12-31T16:10:29.197Z,5.53
2022-12-31T16:12:58.014Z,5.83
2022-12-31T16:15:31.391Z,5.87
2022-12-31T16:18:05.318Z,6.60
2022-12-31T16:20:34.673Z,6.73
2022-12-31T16:23:03.394Z,7.50
2022-12-31T16:25:33.557Z,7.60
2022-12-31T16:28:02.492Z,9.23
2022-12-31T16:30:32.056Z,8.70
2022-12-31T16:33:04.466Z,11.00
2022-12-31T16:35:36.610Z,10.00
2022-12-31T16:38:17.854Z,11.50
2022-12-31T16:41:17.661Z,11.00
2022-12-31T16:43:46.035Z,11.00
2022-12-31T16:46:29.897Z,10.80
2022-12-31T16:49:04.185Z,13.90
2022-12-31T16:51:33.742Z,10.63
2022-12-31T16:54:02.371Z,11.00
2022-12-31T16:56:39.101Z,12.10
2022-12-31T16:59:45.969Z,15.97
2022-12-31T17:02:18.837Z,16.03
2022-12-31T17:04:55.597Z,16.93
2022-12-31T17:07:32.424Z,17.23
2022-12-31T17:10:22.827Z,19.50
2022-12-31T17:15:45.948Z,21.53
2022-12-31T17:18:22.847Z,15.53
2022-12-31T17:20:52.252Z,15.63
2022-12-31T17:23:24.647Z,15.50
2022-12-31T17:25:59.540Z,18.33
2022-12-31T17:28:27.856Z,19.80
2022-12-31T17:31:00.616Z,20.70
2022-12-31T17:33:28.763Z,22.13
2022-12-31T17:36:21.272Z,23.27
2022-12-31T17:38:48.059Z,23.13
2022-12-31T17:41:25.787Z,25.33
2022-12-31T17:43:55.593Z,24.80
2022-12-31T17:46:24.021Z,25.60
2022-12-31T17:48:56.005Z,24.23
2022-12-31T17:51:24.327Z,22.90
2022-12-31T17:53:51.526Z,24.20
2022-12-31T17:56:19.674Z,22.33
2022-12-31T17:58:50.452Z,20.43
2022-12-31T18:01:20.268Z,20.30
2022-12-31T18:03:50.257Z,21.53
2022-12-31T18:06:19.309Z,22.07
2022-12-31T18:08:46.150Z,22.17
2022-12-31T18:11:19.895Z,20.77
2022-12-31T18:13:47.088Z,20.30
2022-12-31T18:16:13.937Z,19.73
2022-12-31T18:18:42.283Z,20.17
2022-12-31T18:21:23.364Z,19.37
2022-12-31T18:23:50.576Z,20.73
2022-12-31T18:26:19.946Z,22.03
2022-12-31T18:28:47.404Z,21.43
2022-12-31T18:31:23.840Z,21.40
2022-12-31T18:33:52.278Z,21.70
2022-12-31T18:36:20.880Z,21.73
2022-12-31T18:38:47.774Z,21.20
2022-12-31T18:41:27.643Z,22.70
2022-12-31T18:43:55.158Z,21.30
2022-12-31T18:46:24.413Z,20.67
2022-12-31T18:48:51.458Z,20.27
2022-12-31T18:51:21.207Z,20.20
2022-12-31T18:53:50.238Z,20.77
2022-12-31T18:56:19.759Z,20.07
2022-12-31T18:58:47.424Z,18.53
2022-12-31T19:01:26.169Z,22.23
2022-12-31T19:03:58.229Z,32.80
2022-12-31T19:06:25.205Z,34.10
2022-12-31T19:08:52.224Z,36.80
2022-12-31T19:11:19.412Z,37.73
2022-12-31T19:13:46.212Z,38.33
2022-12-31T19:16:14.011Z,37.53
2022-12-31T19:18:41.806Z,38.77
2022-12-31T19:21:16.749Z,40.97
2022-12-31T19:23:43.755Z,39.50
2022-12-31T19:26:15.493Z,44.00
2022-12-31T19:28:42.732Z,45.20
2022-12-31T19:31:09.438Z,49.83
2022-12-31T19:33:36.149Z,52.03
2022-12-31T19:36:03.235Z,52.43
2022-12-31T19:38:32.081Z,54.57
2022-12-31T19:40:59.465Z,58.30
2022-12-31T19:43:26.184Z,55.77
2022-12-31T19:45:53.667Z,56.53
2022-12-31T19:48:27.212Z,61.70
2022-12-31T19:50:58.929Z,65.93
2022-12-31T19:53:27.149Z,80.90
2022-12-31T19:55:54.388Z,56.57
2022-12-31T19:58:26.140Z,53.13
2022-12-31T20:00:59.622Z,49.70
2022-12-31T20:03:29.222Z,47.10
2022-12-31T20:06:07.687Z,46.63
2022-12-31T20:08:36.417Z,49.37
2022-12-31T20:11:18.685Z,50.60
2022-12-31T20:13:46.666Z,53.07
2022-12-31T20:16:17.144Z,49.03
2022-12-31T20:18:45.768Z,48.97
2022-12-31T20:21:17.623Z,49.33
2022-12-31T20:23:44.643Z,47.00
2022-12-31T20:26:11.611Z,46.13
2022-12-31T20:28:38.515Z,41.70
2022-12-31T20:31:07.703Z,40.30
2022-12-31T20:33:34.867Z,39.33
2022-12-31T20:36:03.697Z,38.30
2022-12-31T20:38:30.992Z,40.10
2022-12-31T20:41:09.565Z,41.30
2022-12-31T20:43:37.164Z,41.23
2022-12-31T20:46:14.502Z,41.20
2022-12-31T20:48:42.397Z,40.20
2022-12-31T20:51:09.093Z,41.90
2022-12-31T20:53:35.791Z,42.97
2022-12-31T20:56:07.514Z,42.67
2022-12-31T20:58:34.680Z,42.60
2022-12-31T21:01:01.813Z,41.10
2022-12-31T21:04:03.780Z,39.53
2022-12-31T21:06:16.048Z,41.50
2022-12-31T21:08:42.880Z,43.13
2022-12-31T21:11:28.812Z,43.30
2022-12-31T21:13:57.071Z,45.07
2022-12-31T21:16:24.317Z,44.10
2022-12-31T21:18:51.479Z,45.03
2022-12-31T21:21:18.799Z,47.57
2022-12-31T21:23:45.570Z,49.13
2022-12-31T21:26:12.857Z,48.07
2022-12-31T21:28:39.668Z,46.80
2022-12-31T21:31:07.999Z,48.23
2022-12-31T21:33:35.256Z,47.43
2022-12-31T21:36:04.655Z,44.97
2022-12-31T21:38:31.863Z,46.53
2022-12-31T21:41:03.348Z,46.57
2022-12-31T21:43:30.201Z,50.63
2022-12-31T21:46:05.122Z,55.53
2022-12-31T21:48:32.418Z,54.10
2022-12-31T21:51:09.706Z,55.20
2022-12-31T21:53:37.536Z,53.33
2022-12-31T21:56:13.563Z,55.33
2022-12-31T21:58:42.973Z,50.37
2022-12-31T22:01:37.140Z,52.57
2022-12-31T22:04:04.833Z,110.07
2022-12-31T22:06:33.472Z,96.23
2022-12-31T22:09:00.182Z,75.07
2022-12-31T22:11:28.058Z,63.93
2022-12-31T22:13:55.882Z,81.37
2022-12-31T22:16:22.868Z,84.97
2022-12-31T22:18:50.051Z,61.33
2022-12-31T22:21:20.543Z,58.10
2022-12-31T22:23:52.265Z,57.27
2022-12-31T22:26:21.587Z,58.83
2022-12-31T22:28:48.330Z,60.30
2022-12-31T22:31:21.042Z,68.40
2022-12-31T22:33:48.339Z,71.70
2022-12-31T22:36:17.563Z,57.47
2022-12-31T22:38:44.553Z,55.57
2022-12-31T22:41:14.347Z,55.33
2022-12-31T22:43:45.204Z,58.97
2022-12-31T22:46:22.576Z,60.47
2022-12-31T22:48:50.851Z,66.93
2022-12-31T22:51:19.163Z,109.37
2022-12-31T22:53:46.537Z,92.83
2022-12-31T22:56:15.967Z,89.20
2022-12-31T22:58:43.299Z,92.40
2022-12-31T23:01:22.362Z,86.10
2022-12-31T23:03:50.877Z,67.00
2022-12-31T23:06:18.504Z,104.07
2022-12-31T23:09:04.370Z,132.20
2022-12-31T23:11:32.078Z,165.67
2022-12-31T23:14:17.713Z,232.33
2022-12-31T23:17:30.212Z,368.33
2022-12-31T23:20:08.303Z,519.30
2022-12-31T23:22:53.696Z,566.93
2022-12-31T23:25:20.838Z,576.40
2022-12-31T23:27:47.587Z,566.40
2022-12-31T23:30:14.266Z,590.50
2022-12-31T23:32:40.941Z,597.53
2022-12-31T23:35:09.944Z,508.57
2022-12-31T23:37:36.981Z,582.67
2022-12-31T23:40:04.008Z,595.37
2022-12-31T23:42:30.693Z,592.23
2022-12-31T23:44:57.321Z,589.23
2022-12-31T23:47:23.999Z,616.40
2022-12-31T23:49:50.721Z,627.27
2022-12-31T23:52:17.407Z,609.73
2022-12-31T23:54:44.072Z,564.93
2022-12-31T23:57:10.850Z,553.80
2022-12-31T23:59:37.541Z,517.20
